Kezdőlap
METAR-TAF:

METAR-TAF

Repülőterek :

Atyrau, Kazahsztán

földrajzi szélesség: 47-07-19N, földrajzi hosszúság: 051-49-17E, magasság: -22 m

Jelenlegi meteorológiai megfigyelések

A jelentés 32 perccel ezelõtt készült, 12:30 UTC
Északkeleti szél 12 kt
Hőmérséklet 11°C
Páratartalom 20%
Légköri nyomás 1022 hPa
Látótávolság 10 km, vagy több
felhőtlen 1500 m magasságban, és nincs gomolyfelhõ

METAR: UATG 191230Z 04006MPS CAVOK 11/M11 Q1022 R32/CLRD70 NOSIG RMK QFE768/1024

Idő: 19:02 (13:02 UTC)

Előrejelzés

A jelentés 2 órával és 2 perccel ezelõtt készült, 11:00 UTC
Az előrejelzés 19-én 12 óra UTC és 20-én 12 óra UTC között érvényes
Északkeleti szél 16 kt
Látótávolság 10 km, vagy több
Szórványos felhőzet 3300 lábon
19-én 14 óra UTC és 19-én 16 óra UTC között fokozatosan kialakuló
Különbözõ irányokból fújó szél 6 kt

TAF: UATG 191100Z 1912/2012 04008MPS 9999 SCT033 TX12/2012Z TNM02/2003Z BECMG 1914/1916 VRB03MPS

Meteorológiai megfigyelések és előrejelzések több, mint 4000 repülőtéren (METAR és TAF jelentéseket).

A térképen piros és sárga pontok jelzik az elérhető meteorológiai állomásokat.

Mozgassa az egeret a pont fölött, hogy megjelenjen az állomás neve.

Azután kattintson az időjárási megfigyelések és előrejelzések megtekintéséhez.

A térkép megváltoztatása: kattintson a fekete keresztel jelölt zöld gombra ráközelítéshez, a vonallal jelölt zöld gombra távolításhoz, vagy a zöld nyilakra a szomszédos térképek eléréséhez.


METAR-TAF: